sensor_id;sensor_type;location;lat;lon;timestamp;temperature;humidity
19397;DHT22;9834;48.076;11.878;2022-07-06T00:00:17;14.50;99.90
19397;DHT22;9834;48.076;11.878;2022-07-06T00:02:44;14.50;99.90
19397;DHT22;9834;48.076;11.878;2022-07-06T00:05:11;14.50;99.90
19397;DHT22;9834;48.076;11.878;2022-07-06T00:07:40;14.60;99.90
19397;DHT22;9834;48.076;11.878;2022-07-06T00:10:07;14.60;99.90
19397;DHT22;9834;48.076;11.878;2022-07-06T00:12:34;14.60;99.90
19397;DHT22;9834;48.076;11.878;2022-07-06T00:15:01;14.60;99.90
19397;DHT22;9834;48.076;11.878;2022-07-06T00:17:28;14.70;99.90
19397;DHT22;9834;48.076;11.878;2022-07-06T00:19:55;14.80;99.90
19397;DHT22;9834;48.076;11.878;2022-07-06T00:22:22;14.80;99.90
19397;DHT22;9834;48.076;11.878;2022-07-06T00:24:50;14.90;99.90
19397;DHT22;9834;48.076;11.878;2022-07-06T00:27:17;14.80;99.90
19397;DHT22;9834;48.076;11.878;2022-07-06T00:29:45;14.80;99.90
19397;DHT22;9834;48.076;11.878;2022-07-06T00:32:12;14.80;99.90
19397;DHT22;9834;48.076;11.878;2022-07-06T00:34:39;14.90;99.90
19397;DHT22;9834;48.076;11.878;2022-07-06T00:37:06;14.90;99.90
19397;DHT22;9834;48.076;11.878;2022-07-06T00:39:33;15.00;99.90
19397;DHT22;9834;48.076;11.878;2022-07-06T00:42:02;15.00;99.90
19397;DHT22;9834;48.076;11.878;2022-07-06T00:44:29;15.10;99.90
19397;DHT22;9834;48.076;11.878;2022-07-06T00:46:58;15.00;99.90
19397;DHT22;9834;48.076;11.878;2022-07-06T00:49:25;15.00;99.90
19397;DHT22;9834;48.076;11.878;2022-07-06T00:52:10;14.90;99.90
19397;DHT22;9834;48.076;11.878;2022-07-06T00:54:39;14.90;99.90
19397;DHT22;9834;48.076;11.878;2022-07-06T00:57:09;14.90;99.90
19397;DHT22;9834;48.076;11.878;2022-07-06T00:59:36;14.80;99.90
19397;DHT22;9834;48.076;11.878;2022-07-06T01:02:04;14.80;99.90
19397;DHT22;9834;48.076;11.878;2022-07-06T01:04:31;14.70;99.90
19397;DHT22;9834;48.076;11.878;2022-07-06T01:06:59;14.70;99.90
19397;DHT22;9834;48.076;11.878;2022-07-06T01:09:27;14.70;99.90
19397;DHT22;9834;48.076;11.878;2022-07-06T01:11:54;14.60;99.90
19397;DHT22;9834;48.076;11.878;2022-07-06T01:14:22;14.70;99.90
19397;DHT22;9834;48.076;11.878;2022-07-06T01:16:49;14.70;99.90
19397;DHT22;9834;48.076;11.878;2022-07-06T01:19:16;14.60;99.90
19397;DHT22;9834;48.076;11.878;2022-07-06T01:21:45;14.70;99.90
19397;DHT22;9834;48.076;11.878;2022-07-06T01:24:12;14.60;99.90
19397;DHT22;9834;48.076;11.878;2022-07-06T01:26:39;14.70;99.90
19397;DHT22;9834;48.076;11.878;2022-07-06T01:29:06;14.70;99.90
19397;DHT22;9834;48.076;11.878;2022-07-06T01:31:33;14.60;99.90
19397;DHT22;9834;48.076;11.878;2022-07-06T01:34:00;14.60;99.90
19397;DHT22;9834;48.076;11.878;2022-07-06T01:36:27;14.50;99.90
19397;DHT22;9834;48.076;11.878;2022-07-06T01:38:56;14.50;99.90
19397;DHT22;9834;48.076;11.878;2022-07-06T01:41:23;14.40;99.90
19397;DHT22;9834;48.076;11.878;2022-07-06T01:43:51;14.40;99.90
19397;DHT22;9834;48.076;11.878;2022-07-06T01:46:18;14.40;99.90
19397;DHT22;9834;48.076;11.878;2022-07-06T01:48:46;14.40;99.90
19397;DHT22;9834;48.076;11.878;2022-07-06T01:51:13;14.40;99.90
19397;DHT22;9834;48.076;11.878;2022-07-06T01:53:40;14.40;99.90
19397;DHT22;9834;48.076;11.878;2022-07-06T01:56:10;14.40;99.90
19397;DHT22;9834;48.076;11.878;2022-07-06T01:58:37;14.40;99.90
19397;DHT22;9834;48.076;11.878;2022-07-06T02:01:08;14.40;99.90
19397;DHT22;9834;48.076;11.878;2022-07-06T02:03:35;14.30;99.90
19397;DHT22;9834;48.076;11.878;2022-07-06T02:06:02;14.30;99.90
19397;DHT22;9834;48.076;11.878;2022-07-06T02:08:29;14.30;99.90
19397;DHT22;9834;48.076;11.878;2022-07-06T02:10:56;14.40;99.90
19397;DHT22;9834;48.076;11.878;2022-07-06T02:13:25;14.40;99.90
19397;DHT22;9834;48.076;11.878;2022-07-06T02:15:52;14.50;99.90
19397;DHT22;9834;48.076;11.878;2022-07-06T02:18:19;14.60;99.90
19397;DHT22;9834;48.076;11.878;2022-07-06T02:20:46;14.60;99.90
19397;DHT22;9834;48.076;11.878;2022-07-06T02:23:13;14.70;99.90
19397;DHT22;9834;48.076;11.878;2022-07-06T02:25:40;14.70;99.90
19397;DHT22;9834;48.076;11.878;2022-07-06T02:28:07;14.70;99.90
19397;DHT22;9834;48.076;11.878;2022-07-06T02:30:35;14.80;99.90
19397;DHT22;9834;48.076;11.878;2022-07-06T02:33:03;14.80;99.90
19397;DHT22;9834;48.076;11.878;2022-07-06T02:35:30;14.80;99.90
19397;DHT22;9834;48.076;11.878;2022-07-06T02:37:57;14.90;99.90
19397;DHT22;9834;48.076;11.878;2022-07-06T02:40:24;14.80;99.90
19397;DHT22;9834;48.076;11.878;2022-07-06T02:42:51;14.70;99.90
19397;DHT22;9834;48.076;11.878;2022-07-06T02:45:18;14.70;99.90
19397;DHT22;9834;48.076;11.878;2022-07-06T02:47:46;14.70;99.90
19397;DHT22;9834;48.076;11.878;2022-07-06T02:50:13;14.70;99.90
19397;DHT22;9834;48.076;11.878;2022-07-06T02:52:40;14.60;99.90
19397;DHT22;9834;48.076;11.878;2022-07-06T02:55:07;14.50;99.90
19397;DHT22;9834;48.076;11.878;2022-07-06T02:57:34;14.50;99.90
19397;DHT22;9834;48.076;11.878;2022-07-06T03:00:02;14.50;99.90
19397;DHT22;9834;48.076;11.878;2022-07-06T03:02:33;14.40;99.90
19397;DHT22;9834;48.076;11.878;2022-07-06T03:05:03;14.30;99.90
19397;DHT22;9834;48.076;11.878;2022-07-06T03:07:30;14.30;99.90
19397;DHT22;9834;48.076;11.878;2022-07-06T03:09:57;14.30;99.90
19397;DHT22;9834;48.076;11.878;2022-07-06T03:12:24;14.20;99.90
19397;DHT22;9834;48.076;11.878;2022-07-06T03:14:51;14.10;99.90
19397;DHT22;9834;48.076;11.878;2022-07-06T03:17:18;14.00;99.90
19397;DHT22;9834;48.076;11.878;2022-07-06T03:19:45;14.00;99.90
19397;DHT22;9834;48.076;11.878;2022-07-06T03:22:13;14.00;99.90
19397;DHT22;9834;48.076;11.878;2022-07-06T03:24:40;14.00;99.90
19397;DHT22;9834;48.076;11.878;2022-07-06T03:27:07;14.00;99.90
19397;DHT22;9834;48.076;11.878;2022-07-06T03:29:34;13.90;99.90
19397;DHT22;9834;48.076;11.878;2022-07-06T03:32:01;13.90;99.90
19397;DHT22;9834;48.076;11.878;2022-07-06T03:34:28;13.90;99.90
19397;DHT22;9834;48.076;11.878;2022-07-06T03:36:55;13.80;99.90
19397;DHT22;9834;48.076;11.878;2022-07-06T03:39:23;13.80;99.90
19397;DHT22;9834;48.076;11.878;2022-07-06T03:41:50;13.80;99.90
19397;DHT22;9834;48.076;11.878;2022-07-06T03:44:17;13.90;99.90
19397;DHT22;9834;48.076;11.878;2022-07-06T03:46:44;13.90;99.90
19397;DHT22;9834;48.076;11.878;2022-07-06T03:49:11;14.00;99.90
19397;DHT22;9834;48.076;11.878;2022-07-06T03:51:38;14.10;99.90
19397;DHT22;9834;48.076;11.878;2022-07-06T03:54:05;14.10;99.90
19397;DHT22;9834;48.076;11.878;2022-07-06T03:56:34;14.20;99.90
19397;DHT22;9834;48.076;11.878;2022-07-06T03:59:03;14.10;99.90
19397;DHT22;9834;48.076;11.878;2022-07-06T04:01:31;14.20;99.90
19397;DHT22;9834;48.076;11.878;2022-07-06T04:03:58;14.20;99.90
19397;DHT22;9834;48.076;11.878;2022-07-06T04:06:25;14.10;99.90
19397;DHT22;9834;48.076;11.878;2022-07-06T04:08:52;14.20;99.90
19397;DHT22;9834;48.076;11.878;2022-07-06T04:11:19;14.20;99.90
19397;DHT22;9834;48.076;11.878;2022-07-06T04:13:47;14.30;99.90
19397;DHT22;9834;48.076;11.878;2022-07-06T04:16:14;14.30;99.90
19397;DHT22;9834;48.076;11.878;2022-07-06T04:18:41;14.40;99.90
19397;DHT22;9834;48.076;11.878;2022-07-06T04:21:08;14.40;99.90
19397;DHT22;9834;48.076;11.878;2022-07-06T04:23:35;14.40;99.90
19397;DHT22;9834;48.076;11.878;2022-07-06T04:26:02;14.50;99.90
19397;DHT22;9834;48.076;11.878;2022-07-06T04:28:29;14.50;99.90
19397;DHT22;9834;48.076;11.878;2022-07-06T04:30:57;14.60;99.90
19397;DHT22;9834;48.076;11.878;2022-07-06T04:33:25;14.70;99.90
19397;DHT22;9834;48.076;11.878;2022-07-06T04:35:52;14.80;99.90
19397;DHT22;9834;48.076;11.878;2022-07-06T04:38:19;14.90;99.90
19397;DHT22;9834;48.076;11.878;2022-07-06T04:40:46;15.00;99.90
19397;DHT22;9834;48.076;11.878;2022-07-06T04:43:13;15.20;99.90
19397;DHT22;9834;48.076;11.878;2022-07-06T04:45:40;15.30;99.90
19397;DHT22;9834;48.076;11.878;2022-07-06T04:48:09;15.40;99.90
19397;DHT22;9834;48.076;11.878;2022-07-06T04:50:36;15.60;99.90
19397;DHT22;9834;48.076;11.878;2022-07-06T04:53:03;15.70;99.90
19397;DHT22;9834;48.076;11.878;2022-07-06T04:55:30;15.80;99.90
19397;DHT22;9834;48.076;11.878;2022-07-06T04:57:57;15.90;99.90
19397;DHT22;9834;48.076;11.878;2022-07-06T05:00:24;16.10;99.90
19397;DHT22;9834;48.076;11.878;2022-07-06T05:02:51;16.30;99.90
19397;DHT22;9834;48.076;11.878;2022-07-06T05:05:19;16.40;99.90
19397;DHT22;9834;48.076;11.878;2022-07-06T05:07:46;16.50;99.90
19397;DHT22;9834;48.076;11.878;2022-07-06T05:10:14;16.60;99.90
19397;DHT22;9834;48.076;11.878;2022-07-06T05:12:41;16.60;99.90
19397;DHT22;9834;48.076;11.878;2022-07-06T05:15:08;16.70;99.90
19397;DHT22;9834;48.076;11.878;2022-07-06T05:17:36;16.80;99.90
19397;DHT22;9834;48.076;11.878;2022-07-06T05:20:04;16.90;99.90
19397;DHT22;9834;48.076;11.878;2022-07-06T05:22:33;16.90;99.90
19397;DHT22;9834;48.076;11.878;2022-07-06T05:25:02;16.90;99.90
19397;DHT22;9834;48.076;11.878;2022-07-06T05:27:29;17.00;99.90
19397;DHT22;9834;48.076;11.878;2022-07-06T05:29:56;17.00;99.90
19397;DHT22;9834;48.076;11.878;2022-07-06T05:32:23;17.10;99.90
19397;DHT22;9834;48.076;11.878;2022-07-06T05:34:50;17.20;99.90
19397;DHT22;9834;48.076;11.878;2022-07-06T05:37:17;17.30;99.90
19397;DHT22;9834;48.076;11.878;2022-07-06T05:39:46;17.30;99.90
19397;DHT22;9834;48.076;11.878;2022-07-06T05:42:15;17.40;99.90
19397;DHT22;9834;48.076;11.878;2022-07-06T05:44:42;17.50;99.90
19397;DHT22;9834;48.076;11.878;2022-07-06T05:47:09;17.60;99.90
19397;DHT22;9834;48.076;11.878;2022-07-06T05:49:53;17.60;99.90
19397;DHT22;9834;48.076;11.878;2022-07-06T05:52:38;17.80;99.90
19397;DHT22;9834;48.076;11.878;2022-07-06T05:55:07;17.90;99.90
19397;DHT22;9834;48.076;11.878;2022-07-06T05:57:34;18.00;99.90
19397;DHT22;9834;48.076;11.878;2022-07-06T06:00:02;18.10;99.90
19397;DHT22;9834;48.076;11.878;2022-07-06T06:02:36;18.20;99.90
19397;DHT22;9834;48.076;11.878;2022-07-06T06:05:05;18.20;99.90
19397;DHT22;9834;48.076;11.878;2022-07-06T06:07:34;18.30;99.90
19397;DHT22;9834;48.076;11.878;2022-07-06T06:10:03;18.40;99.90
19397;DHT22;9834;48.076;11.878;2022-07-06T06:12:32;18.50;99.90
19397;DHT22;9834;48.076;11.878;2022-07-06T06:14:59;18.50;99.90
19397;DHT22;9834;48.076;11.878;2022-07-06T06:17:26;18.50;99.90
19397;DHT22;9834;48.076;11.878;2022-07-06T06:19:53;18.50;99.90
19397;DHT22;9834;48.076;11.878;2022-07-06T06:22:20;18.50;99.90
19397;DHT22;9834;48.076;11.878;2022-07-06T06:24:47;18.60;99.90
19397;DHT22;9834;48.076;11.878;2022-07-06T06:27:14;18.60;99.90
19397;DHT22;9834;48.076;11.878;2022-07-06T06:29:43;18.50;99.90
19397;DHT22;9834;48.076;11.878;2022-07-06T06:32:10;18.60;99.90
19397;DHT22;9834;48.076;11.878;2022-07-06T06:34:38;18.60;99.90
19397;DHT22;9834;48.076;11.878;2022-07-06T06:37:05;18.60;99.90
19397;DHT22;9834;48.076;11.878;2022-07-06T06:39:32;18.70;99.90
19397;DHT22;9834;48.076;11.878;2022-07-06T06:41:59;18.70;99.90
19397;DHT22;9834;48.076;11.878;2022-07-06T06:44:26;18.80;99.90
19397;DHT22;9834;48.076;11.878;2022-07-06T06:46:54;18.80;99.90
19397;DHT22;9834;48.076;11.878;2022-07-06T06:49:21;18.90;99.90
19397;DHT22;9834;48.076;11.878;2022-07-06T06:51:48;18.90;99.90
19397;DHT22;9834;48.076;11.878;2022-07-06T06:54:15;18.90;99.90
19397;DHT22;9834;48.076;11.878;2022-07-06T06:56:42;19.00;99.90
19397;DHT22;9834;48.076;11.878;2022-07-06T06:59:09;19.00;99.90
19397;DHT22;9834;48.076;11.878;2022-07-06T07:01:36;19.10;99.90
19397;DHT22;9834;48.076;11.878;2022-07-06T07:04:04;19.10;99.90
19397;DHT22;9834;48.076;11.878;2022-07-06T07:06:31;19.10;99.90
19397;DHT22;9834;48.076;11.878;2022-07-06T07:08:58;19.20;99.90
19397;DHT22;9834;48.076;11.878;2022-07-06T07:11:25;19.30;99.90
19397;DHT22;9834;48.076;11.878;2022-07-06T07:13:52;19.40;99.90
19397;DHT22;9834;48.076;11.878;2022-07-06T07:16:21;19.40;99.90
19397;DHT22;9834;48.076;11.878;2022-07-06T07:18:50;19.50;99.90
19397;DHT22;9834;48.076;11.878;2022-07-06T07:21:18;19.50;99.90
19397;DHT22;9834;48.076;11.878;2022-07-06T07:23:48;19.60;99.90
19397;DHT22;9834;48.076;11.878;2022-07-06T07:26:15;19.70;99.90
19397;DHT22;9834;48.076;11.878;2022-07-06T07:28:42;19.80;99.90
19397;DHT22;9834;48.076;11.878;2022-07-06T07:31:09;19.80;99.70
19397;DHT22;9834;48.076;11.878;2022-07-06T07:33:37;19.90;99.90
19397;DHT22;9834;48.076;11.878;2022-07-06T07:36:04;19.90;99.70
19397;DHT22;9834;48.076;11.878;2022-07-06T07:38:37;20.00;99.00
19397;DHT22;9834;48.076;11.878;2022-07-06T07:41:04;19.90;99.90
19397;DHT22;9834;48.076;11.878;2022-07-06T07:43:32;19.90;98.00
19397;DHT22;9834;48.076;11.878;2022-07-06T07:45:59;19.90;98.20
19397;DHT22;9834;48.076;11.878;2022-07-06T07:48:26;20.10;99.00
19397;DHT22;9834;48.076;11.878;2022-07-06T07:50:53;20.10;98.00
19397;DHT22;9834;48.076;11.878;2022-07-06T07:53:20;20.20;98.90
19397;DHT22;9834;48.076;11.878;2022-07-06T07:55:48;20.30;97.90
19397;DHT22;9834;48.076;11.878;2022-07-06T07:58:15;20.40;97.50
19397;DHT22;9834;48.076;11.878;2022-07-06T08:00:42;20.50;96.70
19397;DHT22;9834;48.076;11.878;2022-07-06T08:03:09;20.50;96.90
19397;DHT22;9834;48.076;11.878;2022-07-06T08:05:36;20.60;97.90
19397;DHT22;9834;48.076;11.878;2022-07-06T08:08:04;20.70;95.80
19397;DHT22;9834;48.076;11.878;2022-07-06T08:10:31;20.80;93.60
19397;DHT22;9834;48.076;11.878;2022-07-06T08:13:00;21.00;96.10
19397;DHT22;9834;48.076;11.878;2022-07-06T08:15:27;21.10;94.30
19397;DHT22;9834;48.076;11.878;2022-07-06T08:17:54;21.10;91.50
19397;DHT22;9834;48.076;11.878;2022-07-06T08:20:21;21.10;90.60
19397;DHT22;9834;48.076;11.878;2022-07-06T08:22:48;21.10;91.90
19397;DHT22;9834;48.076;11.878;2022-07-06T08:25:15;21.20;91.40
19397;DHT22;9834;48.076;11.878;2022-07-06T08:27:42;21.30;89.20
19397;DHT22;9834;48.076;11.878;2022-07-06T08:30:11;21.30;89.80
19397;DHT22;9834;48.076;11.878;2022-07-06T08:32:39;21.30;90.40
19397;DHT22;9834;48.076;11.878;2022-07-06T08:35:06;21.20;90.20
19397;DHT22;9834;48.076;11.878;2022-07-06T08:37:33;21.20;88.70
19397;DHT22;9834;48.076;11.878;2022-07-06T08:40:01;21.30;92.00
19397;DHT22;9834;48.076;11.878;2022-07-06T08:42:31;21.40;88.90
19397;DHT22;9834;48.076;11.878;2022-07-06T08:44:59;21.40;89.20
19397;DHT22;9834;48.076;11.878;2022-07-06T08:47:28;21.50;90.50
19397;DHT22;9834;48.076;11.878;2022-07-06T08:49:55;21.70;91.20
19397;DHT22;9834;48.076;11.878;2022-07-06T08:52:23;21.80;86.30
19397;DHT22;9834;48.076;11.878;2022-07-06T08:54:50;21.90;87.10
19397;DHT22;9834;48.076;11.878;2022-07-06T08:57:18;21.90;83.60
19397;DHT22;9834;48.076;11.878;2022-07-06T08:59:45;22.00;82.10
19397;DHT22;9834;48.076;11.878;2022-07-06T09:02:13;21.90;77.60
19397;DHT22;9834;48.076;11.878;2022-07-06T09:04:43;22.00;85.10
19397;DHT22;9834;48.076;11.878;2022-07-06T09:07:10;22.20;81.80
19397;DHT22;9834;48.076;11.878;2022-07-06T09:09:40;22.30;77.70
19397;DHT22;9834;48.076;11.878;2022-07-06T09:12:11;22.40;79.20
19397;DHT22;9834;48.076;11.878;2022-07-06T09:14:39;22.80;79.10
19397;DHT22;9834;48.076;11.878;2022-07-06T09:17:09;23.20;75.00
19397;DHT22;9834;48.076;11.878;2022-07-06T09:19:45;23.60;72.70
19397;DHT22;9834;48.076;11.878;2022-07-06T09:22:25;23.90;78.60
19397;DHT22;9834;48.076;11.878;2022-07-06T09:24:53;24.20;73.70
19397;DHT22;9834;48.076;11.878;2022-07-06T09:27:27;24.10;71.00
19397;DHT22;9834;48.076;11.878;2022-07-06T09:29:54;24.30;74.40
19397;DHT22;9834;48.076;11.878;2022-07-06T09:32:25;24.30;68.30
19397;DHT22;9834;48.076;11.878;2022-07-06T09:34:54;24.20;71.90
19397;DHT22;9834;48.076;11.878;2022-07-06T09:37:22;24.40;69.70
19397;DHT22;9834;48.076;11.878;2022-07-06T09:39:49;24.30;71.30
19397;DHT22;9834;48.076;11.878;2022-07-06T09:42:17;24.10;70.10
19397;DHT22;9834;48.076;11.878;2022-07-06T09:44:50;23.80;68.30
19397;DHT22;9834;48.076;11.878;2022-07-06T09:47:18;23.70;72.90
19397;DHT22;9834;48.076;11.878;2022-07-06T09:49:46;24.10;75.40
19397;DHT22;9834;48.076;11.878;2022-07-06T09:52:14;24.30;72.10
19397;DHT22;9834;48.076;11.878;2022-07-06T09:54:42;24.00;67.50
19397;DHT22;9834;48.076;11.878;2022-07-06T09:57:09;23.80;67.40
19397;DHT22;9834;48.076;11.878;2022-07-06T09:59:37;23.60;68.40
19397;DHT22;9834;48.076;11.878;2022-07-06T10:02:06;23.90;76.70
19397;DHT22;9834;48.076;11.878;2022-07-06T10:04:34;24.30;70.50
19397;DHT22;9834;48.076;11.878;2022-07-06T10:07:01;24.60;68.10
19397;DHT22;9834;48.076;11.878;2022-07-06T10:09:30;24.80;68.70
19397;DHT22;9834;48.076;11.878;2022-07-06T10:11:58;24.70;66.20
19397;DHT22;9834;48.076;11.878;2022-07-06T10:14:28;24.80;65.60
19397;DHT22;9834;48.076;11.878;2022-07-06T10:16:56;25.20;64.00
19397;DHT22;9834;48.076;11.878;2022-07-06T10:19:24;25.60;63.70
19397;DHT22;9834;48.076;11.878;2022-07-06T10:21:52;25.50;62.80
19397;DHT22;9834;48.076;11.878;2022-07-06T10:24:19;25.40;62.40
19397;DHT22;9834;48.076;11.878;2022-07-06T10:26:48;26.00;64.00
19397;DHT22;9834;48.076;11.878;2022-07-06T10:29:15;28.10;59.00
19397;DHT22;9834;48.076;11.878;2022-07-06T10:31:45;29.40;53.40
19397;DHT22;9834;48.076;11.878;2022-07-06T10:34:15;29.00;52.70
19397;DHT22;9834;48.076;11.878;2022-07-06T10:36:46;28.60;54.80
19397;DHT22;9834;48.076;11.878;2022-07-06T10:39:14;28.90;55.40
19397;DHT22;9834;48.076;11.878;2022-07-06T10:42:00;28.00;52.80
19397;DHT22;9834;48.076;11.878;2022-07-06T10:44:27;27.50;54.40
19397;DHT22;9834;48.076;11.878;2022-07-06T10:46:55;27.70;53.10
19397;DHT22;9834;48.076;11.878;2022-07-06T10:49:23;27.30;53.00
19397;DHT22;9834;48.076;11.878;2022-07-06T10:51:51;26.40;55.50
19397;DHT22;9834;48.076;11.878;2022-07-06T10:54:21;25.50;58.50
19397;DHT22;9834;48.076;11.878;2022-07-06T10:56:50;25.10;58.50
19397;DHT22;9834;48.076;11.878;2022-07-06T10:59:20;25.20;58.50
19397;DHT22;9834;48.076;11.878;2022-07-06T11:02:11;25.30;57.00
19397;DHT22;9834;48.076;11.878;2022-07-06T11:04:39;25.40;57.50
19397;DHT22;9834;48.076;11.878;2022-07-06T11:07:10;25.90;55.30
19397;DHT22;9834;48.076;11.878;2022-07-06T11:09:37;27.30;51.50
19397;DHT22;9834;48.076;11.878;2022-07-06T11:12:15;27.90;49.70
19397;DHT22;9834;48.076;11.878;2022-07-06T11:14:46;28.60;53.40
19397;DHT22;9834;48.076;11.878;2022-07-06T11:17:13;29.90;46.80
19397;DHT22;9834;48.076;11.878;2022-07-06T11:19:48;29.40;47.20
19397;DHT22;9834;48.076;11.878;2022-07-06T11:22:16;28.50;48.60
19397;DHT22;9834;48.076;11.878;2022-07-06T11:24:44;28.90;49.10
19397;DHT22;9834;48.076;11.878;2022-07-06T11:27:12;29.30;50.00
19397;DHT22;9834;48.076;11.878;2022-07-06T11:29:40;28.40;48.70
19397;DHT22;9834;48.076;11.878;2022-07-06T11:32:09;27.20;51.30
19397;DHT22;9834;48.076;11.878;2022-07-06T11:34:38;26.50;53.70
19397;DHT22;9834;48.076;11.878;2022-07-06T11:37:06;26.40;53.50
19397;DHT22;9834;48.076;11.878;2022-07-06T11:39:35;27.40;53.90
19397;DHT22;9834;48.076;11.878;2022-07-06T11:42:03;29.20;50.00
19397;DHT22;9834;48.076;11.878;2022-07-06T11:44:30;30.80;48.30
19397;DHT22;9834;48.076;11.878;2022-07-06T11:46:58;32.20;47.40
19397;DHT22;9834;48.076;11.878;2022-07-06T11:49:29;32.60;40.50
19397;DHT22;9834;48.076;11.878;2022-07-06T11:51:56;33.30;42.60
19397;DHT22;9834;48.076;11.878;2022-07-06T11:54:24;32.60;41.30
19397;DHT22;9834;48.076;11.878;2022-07-06T11:56:53;33.00;41.50
19397;DHT22;9834;48.076;11.878;2022-07-06T11:59:22;32.70;40.70
19397;DHT22;9834;48.076;11.878;2022-07-06T12:01:49;32.90;43.30
19397;DHT22;9834;48.076;11.878;2022-07-06T12:04:17;33.80;37.20
19397;DHT22;9834;48.076;11.878;2022-07-06T12:06:45;34.10;37.80
19397;DHT22;9834;48.076;11.878;2022-07-06T12:09:12;32.80;39.80
19397;DHT22;9834;48.076;11.878;2022-07-06T12:11:40;30.40;42.10
19397;DHT22;9834;48.076;11.878;2022-07-06T12:14:16;28.60;46.40
19397;DHT22;9834;48.076;11.878;2022-07-06T12:16:45;29.70;47.10
19397;DHT22;9834;48.076;11.878;2022-07-06T12:19:12;31.30;45.80
19397;DHT22;9834;48.076;11.878;2022-07-06T12:21:48;30.90;42.50
19397;DHT22;9834;48.076;11.878;2022-07-06T12:24:20;31.80;40.00
19397;DHT22;9834;48.076;11.878;2022-07-06T12:26:47;30.90;39.20
19397;DHT22;9834;48.076;11.878;2022-07-06T12:29:15;29.20;44.00
19397;DHT22;9834;48.076;11.878;2022-07-06T12:31:44;29.30;44.40
19397;DHT22;9834;48.076;11.878;2022-07-06T12:34:15;28.80;44.30
19397;DHT22;9834;48.076;11.878;2022-07-06T12:36:43;27.70;47.00
19397;DHT22;9834;48.076;11.878;2022-07-06T12:39:13;27.10;48.70
19397;DHT22;9834;48.076;11.878;2022-07-06T12:41:45;26.60;50.60
19397;DHT22;9834;48.076;11.878;2022-07-06T12:44:13;26.10;49.60
19397;DHT22;9834;48.076;11.878;2022-07-06T12:46:41;26.20;50.80
19397;DHT22;9834;48.076;11.878;2022-07-06T12:49:16;27.80;51.00
19397;DHT22;9834;48.076;11.878;2022-07-06T12:51:58;30.80;44.00
19397;DHT22;9834;48.076;11.878;2022-07-06T12:54:29;32.70;38.80
19397;DHT22;9834;48.076;11.878;2022-07-06T12:57:00;32.10;39.90
19397;DHT22;9834;48.076;11.878;2022-07-06T12:59:30;30.60;41.30
19397;DHT22;9834;48.076;11.878;2022-07-06T13:01:58;29.20;44.00
19397;DHT22;9834;48.076;11.878;2022-07-06T13:04:27;28.90;43.10
19397;DHT22;9834;48.076;11.878;2022-07-06T13:06:54;29.90;42.00
19397;DHT22;9834;48.076;11.878;2022-07-06T13:09:21;31.40;40.90
19397;DHT22;9834;48.076;11.878;2022-07-06T13:11:50;32.50;38.90
19397;DHT22;9834;48.076;11.878;2022-07-06T13:14:18;34.10;37.70
19397;DHT22;9834;48.076;11.878;2022-07-06T13:16:46;34.70;36.50
19397;DHT22;9834;48.076;11.878;2022-07-06T13:19:13;35.50;35.00
19397;DHT22;9834;48.076;11.878;2022-07-06T13:21:40;36.50;33.10
19397;DHT22;9834;48.076;11.878;2022-07-06T13:24:07;36.40;32.00
19397;DHT22;9834;48.076;11.878;2022-07-06T13:26:35;35.80;33.00
19397;DHT22;9834;48.076;11.878;2022-07-06T13:29:03;34.10;36.20
19397;DHT22;9834;48.076;11.878;2022-07-06T13:31:31;33.90;35.80
19397;DHT22;9834;48.076;11.878;2022-07-06T13:33:58;33.70;36.00
19397;DHT22;9834;48.076;11.878;2022-07-06T13:36:24;33.90;36.00
19397;DHT22;9834;48.076;11.878;2022-07-06T13:38:51;34.60;35.50
19397;DHT22;9834;48.076;11.878;2022-07-06T13:41:18;35.20;33.20
19397;DHT22;9834;48.076;11.878;2022-07-06T13:43:45;33.60;35.60
19397;DHT22;9834;48.076;11.878;2022-07-06T13:46:14;31.40;37.20
19397;DHT22;9834;48.076;11.878;2022-07-06T13:48:42;30.50;40.00
19397;DHT22;9834;48.076;11.878;2022-07-06T13:51:10;31.90;38.30
19397;DHT22;9834;48.076;11.878;2022-07-06T13:53:36;33.60;38.70
19397;DHT22;9834;48.076;11.878;2022-07-06T13:56:04;34.00;36.00
19397;DHT22;9834;48.076;11.878;2022-07-06T13:58:33;33.20;36.00
19397;DHT22;9834;48.076;11.878;2022-07-06T14:01:00;32.30;38.50
19397;DHT22;9834;48.076;11.878;2022-07-06T14:03:32;31.60;40.00
19397;DHT22;9834;48.076;11.878;2022-07-06T14:06:05;32.20;38.00
19397;DHT22;9834;48.076;11.878;2022-07-06T14:08:34;31.80;37.20
19397;DHT22;9834;48.076;11.878;2022-07-06T14:11:01;30.60;40.20
19397;DHT22;9834;48.076;11.878;2022-07-06T14:13:28;32.10;39.30
19397;DHT22;9834;48.076;11.878;2022-07-06T14:15:56;33.50;36.50
19397;DHT22;9834;48.076;11.878;2022-07-06T14:18:23;34.00;34.20
19397;DHT22;9834;48.076;11.878;2022-07-06T14:20:52;32.90;35.90
19397;DHT22;9834;48.076;11.878;2022-07-06T14:23:20;33.80;36.30
19397;DHT22;9834;48.076;11.878;2022-07-06T14:25:47;34.40;34.40
19397;DHT22;9834;48.076;11.878;2022-07-06T14:28:15;33.30;35.60
19397;DHT22;9834;48.076;11.878;2022-07-06T14:30:44;31.90;37.70
19397;DHT22;9834;48.076;11.878;2022-07-06T14:33:12;32.50;37.00
19397;DHT22;9834;48.076;11.878;2022-07-06T14:35:42;33.40;36.50
19397;DHT22;9834;48.076;11.878;2022-07-06T14:38:11;34.90;36.90
19397;DHT22;9834;48.076;11.878;2022-07-06T14:40:38;37.10;37.50
19397;DHT22;9834;48.076;11.878;2022-07-06T14:43:05;37.80;29.70
19397;DHT22;9834;48.076;11.878;2022-07-06T14:45:32;37.30;30.30
19397;DHT22;9834;48.076;11.878;2022-07-06T14:47:59;36.70;30.80
19397;DHT22;9834;48.076;11.878;2022-07-06T14:50:26;37.60;33.60
19397;DHT22;9834;48.076;11.878;2022-07-06T14:52:54;38.70;31.70
19397;DHT22;9834;48.076;11.878;2022-07-06T14:55:23;38.90;30.50
19397;DHT22;9834;48.076;11.878;2022-07-06T14:57:50;38.50;29.90
19397;DHT22;9834;48.076;11.878;2022-07-06T15:00:17;36.60;30.60
19397;DHT22;9834;48.076;11.878;2022-07-06T15:02:44;33.60;34.30
19397;DHT22;9834;48.076;11.878;2022-07-06T15:05:11;31.20;37.50
19397;DHT22;9834;48.076;11.878;2022-07-06T15:07:39;29.50;40.60
19397;DHT22;9834;48.076;11.878;2022-07-06T15:10:07;29.50;42.00
19397;DHT22;9834;48.076;11.878;2022-07-06T15:12:36;32.60;41.80
19397;DHT22;9834;48.076;11.878;2022-07-06T15:15:04;35.20;40.00
19397;DHT22;9834;48.076;11.878;2022-07-06T15:17:31;36.50;33.70
19397;DHT22;9834;48.076;11.878;2022-07-06T15:19:59;35.50;32.60
19397;DHT22;9834;48.076;11.878;2022-07-06T15:22:26;35.70;31.80
19397;DHT22;9834;48.076;11.878;2022-07-06T15:24:53;34.50;33.80
19397;DHT22;9834;48.076;11.878;2022-07-06T15:27:20;33.50;35.70
19397;DHT22;9834;48.076;11.878;2022-07-06T15:29:49;33.50;37.20
19397;DHT22;9834;48.076;11.878;2022-07-06T15:32:16;35.50;37.80
19397;DHT22;9834;48.076;11.878;2022-07-06T15:34:43;37.50;33.10